Alanson, Michigan
Current Conditions -  °F | °C
As of 1:55 AM on Monday 24 Nov 2014 (Local Time) from KMGN Reporting Station
Moderate Rain Moderate Rain  
Wind Chill: 39°   Ceiling: 500
Heat Index: 43°   Visibility: 7mi
Dew Point: 43°   Wind: 7mph
Humidity: 99%   Direction: 50°NE
Pressure: 29.09"   Gusts: NA
Location:  45.44°N, 84.79°W
Report Text: KMGN 240655Z AUTO 05006KT 7SM RA OVC005 06/06 A2909 RMK AO2 T00620060
Loading
Personal Weather Stations






























Interactive Weather Map New forecast layout! Learn more

10-Day Weather Forecast

Advertisements
Track Severe Weather on mobile